Wetterdaten der Wetterstation 41540 Dormagen

Letzte Wetterlage 19.12.2014 10:42
Wetterdiagramm
Tabellarische Darstellung
Datum Temperatur Windchill Feuchte Luftdruck Windrichtung Windstärke Niederschlag
19.12.2014 10:52 11,5 °C 4,3 °C 86 % 1011,8 hPa 293 6.5 0,70 mm
19.12.2014 10:42 11,5 °C 5,7 °C 86 % 1011,6 hPa 315 5.1 1,10 mm
19.12.2014 10:32 11,5 °C 8,1 °C 86 % 1011,7 hPa 315 3.4 1,40 mm
19.12.2014 10:22 11,5 °C 5,0 °C 86 % 1011,6 hPa 135 5.8 1,70 mm
19.12.2014 10:12 11,4 °C 5,6 °C 86 % 1011,5 hPa 315 5.1 1,70 mm
19.12.2014 10:02 11,3 °C 3,7 °C 86 % 1011,4 hPa 225 6.8 1,70 mm
19.12.2014 09:52 11,3 °C 6,4 °C 86 % 1011,4 hPa 248 4.4 1,60 mm
19.12.2014 09:42 11,3 °C 5,5 °C 85 % 1011,5 hPa 315 5.1 1,10 mm
19.12.2014 09:32 11,3 °C 5,9 °C 85 % 1011,4 hPa 270 4.8 0,90 mm
19.12.2014 09:22 11,4 °C 6,5 °C 85 % 1011,6 hPa 225 4.4 0,40 mm
19.12.2014 09:12 11,5 °C 5,0 °C 84 % 1011,5 hPa 315 5.8 0,10 mm
19.12.2014 09:02 11,6 °C 6,2 °C 84 % 1011,4 hPa 225 4.8 0,00 mm
19.12.2014 08:57 11,7 °C 4,5 °C 83 % 1011,5 hPa 315 6.5 0,00 mm
19.12.2014 08:52 11,8 °C 4,7 °C 83 % 1011,5 hPa 23 6.5 0,00 mm
19.12.2014 08:42 12,0 °C 6,7 °C 81 % 1011,4 hPa 315 4.8 0,00 mm
19.12.2014 08:32 12,1 °C 5,4 °C 81 % 1011,5 hPa 225 6.1 0,00 mm
19.12.2014 08:22 12,3 °C 7,6 °C 80 % 1011,3 hPa 270 4.4 0,00 mm
19.12.2014 08:12 12,3 °C 6,4 °C 80 % 1011,4 hPa 315 5.4 0,00 mm
19.12.2014 08:02 12,3 °C 4,8 °C 80 % 1011,2 hPa 338 7.1 0,00 mm
19.12.2014 07:57 12,3 °C 4,5 °C 80 % 1011,3 hPa 180 7.5 0,00 mm
19.12.2014 07:52 12,3 °C 5,7 °C 81 % 1011,5 hPa 180 6.1 0,00 mm
19.12.2014 07:42 12,2 °C 6,3 °C 81 % 1011,6 hPa 248 5.4 0,00 mm
19.12.2014 07:32 12,2 °C 6,3 °C 81 % 1011,7 hPa 315 5.4 0,00 mm
19.12.2014 07:22 12,3 °C 6,0 °C 81 % 1011,6 hPa 225 5.8 0,00 mm
19.12.2014 07:12 12,2 °C 6,6 °C 81 % 1012,0 hPa 180 5.1 0,00 mm
Empfehlen Sie wetter.com
| Mehr
Neue Wetterwarnung

Neue Niederschlagsmeldung
Neue Meldung
Regen Liveticker
    sehr starker Regen/Gewitter
    starker Regen/Gewitter
    mäßiger bis starker Regen
    mäßiger Regen
    leichter bis mäßiger Regen
    kein Regen